Airfield :
LOGIN :

Register | Disclaimer

   EN    FR    IT 

 










Legend :    VFR   Marginal VFR   IFR   Intensive IFR   Very Intensive IFR
Visi :
Ceiling :
>= 8 km
>= 3000ft
5 to 8 km
1000 to 3000 ft
1500m to 5 km
500 to 1000 ft
800 to 1500m
200 to 500 ft
< 800m
< 200 ft
Symbols :   Thunderstorms  Fog  Heavy snow  Heavy precipitations  Wind > 20 kt
SIGMETs :     Misc.  Thunderstorms  Icing  Turbulence  Mountain Waves  Volcanic Ashes






- Airport Elevation : 1768 ft


LEHC - Huesca Pirineos

CURRENT METAR :
  • 251430Z 27015KT 9999 SCT007 08/06 Q1007

EXPIRED METARs :
  • 251400Z 27013KT 9999 OVC005 07/07 Q1007
  • 251334Z 27012KT 240V300 9999 OVC004 07/07 Q1007
  • 251309Z 28013KT 9999 BKN006 OVC069 07/06 Q1007
  • 251230Z 28012KT 9999 BKN070 07/06 Q1008
  • 251200Z 27009KT 9999 SCT067 07/06 Q1008

TAF TAF LEHC
Valid from the 25 at 15:00 until the 26 at 15:00 UTC


251400Z 2515/2615 27010KT 9999 FEW040 TX11/2614Z TNM02/2606Z
TEMPO 2515/2517 3000 DZRA BR BKN005 OVC040
BECMG 2606/2608 VRB04KT



MET'MAP, your aeronautical weather chart ! - Copyright ORBIFLY December 2007 - Disclaimer

ORBIFLY MET'MAP TEAM :

Programming & Development : Alexandra Zaïnal
Concept & original design : Baudouin d'Aumeries
Assistance for programming : Marc-Olivier Méhu
Technical & hardware support : Manuel Goepfert

Contact : metmap@orbifly.com




SOURCES & CREDITS :

   NOAA